Terminal Aerodrome Forecast
Issued by NWS Albuquerque, NM

Home | Current Version | Previous Version | Text Only | Print | Product List | Glossary On
Versions: 1 2 3 4 5 6 7 8 9 10 11 12 13 14 15 16 17 18 19
000
FTUS45 KABQ 222341
TAFABQ
TAF
KABQ 222341Z 2300/2324 VRB06KT P6SM VCSH SCT070 BKN120
     FM230100 09020G30KT P6SM VCSH BKN070
      TEMPO 2301/2303 VRB25G35KT -TSRA BKN070CB
     FM230400 08012G22KT P6SM VCSH BKN080
     FM230700 08008KT P6SM SCT050 BKN090
     FM231600 15005KT P6SM FEW100
     FM232000 23008KT P6SM SCT090=

USA.gov is the U.S. government's official web portal to all federal, state and local government web resources and services.